Willamette Champion — WDF3270 — position and weather

sailwx.info

Track history (hours):
 
Tides and Currents Weather Stations Pressure Air Temp Water Temp Dewpoint Dewpoint Depression Visibility Wind Speed Wind Dir Waves Ship Positions

Willamette Champion

Owner: Harley Marine Services, INC, Seattle, WA. More information available from US FCC via Universal Licensing System and Coast Guard Vessel Documentation Center.

Last reported at 2018-Jul-22 19:16 UTC. Time now 2018-Jul-22 21:58 UTC.
Position N 45°36' W 122°34'.

Length 27 m.

Type: Towing. MMSI: 2533572.

Date/timePositionNaut miles runAvg speedWind from/ knotsBaromVisibWave heightAir tempDewpointWater temp
2018-Jul-22 19:16N 45°36' W 122°34'2 7.3
2018-Jul-22 18:57N 45°36' W 122°37'3 7.1
2018-Jul-22 18:30N 45°38' W 122°41'3 5.6
2018-Jul-22 18:00N 45°39' W 122°45'3 5.8
2018-Jul-22 17:30N 45°37' W 122°47'2 4.1
2018-Jul-22 17:01N 45°35' W 122°46'0 0.0
2018-Jul-22 16:30N 45°35' W 122°46'0 0.0
2018-Jul-22 15:59N 45°35' W 122°46'0 0.0
2018-Jul-22 15:01N 45°35' W 122°46'0 0.0
2018-Jul-22 14:30N 45°35' W 122°46'1 2.9
2018-Jul-22 14:00N 45°34' W 122°44'0 0.0
2018-Jul-22 13:30N 45°34' W 122°44'0 0.0
2018-Jul-22 13:00N 45°34' W 122°44'0 0.0
2018-Jul-22 12:30N 45°34' W 122°44'1 1.4
2018-Jul-22 11:45N 45°35' W 122°45'0 1.6
2018-Jul-22 11:30N 45°35' W 122°46'0 0.0
2018-Jul-22 11:01N 45°35' W 122°46'0 0.0
2018-Jul-22 10:30N 45°35' W 122°46'0 0.0
2018-Jul-22 09:46N 45°35' W 122°46'0 0.0
2018-Jul-22 09:29N 45°35' W 122°46'0 0.0
2018-Jul-22 08:59N 45°35' W 122°46'0 0.0
2018-Jul-22 08:30N 45°35' W 122°46'0 0.0
2018-Jul-22 08:00N 45°35' W 122°46'0 0.0
2018-Jul-22 07:30N 45°35' W 122°46'0 0.0
2018-Jul-22 06:47N 45°35' W 122°46'0 0.0
2018-Jul-22 06:29N 45°35' W 122°46'0 0.0
2018-Jul-22 06:00N 45°35' W 122°46'0 0.0
2018-Jul-22 05:31N 45°35' W 122°46'0 0.0
2018-Jul-22 04:49N 45°35' W 122°46'0 0.0
2018-Jul-22 04:30N 45°35' W 122°46'0 0.0
2018-Jul-22 04:00N 45°35' W 122°46'0 0.0
2018-Jul-22 03:30N 45°35' W 122°46'0 0.0
2018-Jul-22 03:00N 45°35' W 122°46'0 0.0
2018-Jul-22 02:14N 45°35' W 122°46'0 0.0
2018-Jul-22 02:00N 45°35' W 122°46'2 3.4
2018-Jul-22 01:30N 45°34' W 122°44'5 9.0
2018-Jul-22 01:00N 45°37' W 122°47'5 9.5
2018-Jul-22 00:30N 45°42' W 122°46'5 9.4
2018-Jul-21 23:59N 45°47' W 122°46'4 9.0
2018-Jul-21 23:29N 45°51' W 122°47'4 7.5
2018-Jul-21 23:00N 45°55' W 122°49'4 8.9
2018-Jul-21 22:30N 45°59' W 122°51'5 9.4
2018-Jul-21 22:00N 46°03' W 122°53'4 8.8
2018-Jul-21 21:30N 46°06' W 122°58'1 1.5
2018-Jul-21 21:00N 46°06' W 122°57'0 0.0
2018-Jul-21 20:30N 46°06' W 122°57'0 0.0
2018-Jul-21 20:00N 46°06' W 122°57'0 0.0
2018-Jul-21 19:30N 46°06' W 122°57'0 0.0
2018-Jul-21 19:00N 46°06' W 122°57'0 0.0
2018-Jul-21 18:30N 46°06' W 122°57'0 0.0
2018-Jul-21 17:56N 46°06' W 122°57'0 0.0
2018-Jul-21 17:30N 46°06' W 122°57'0 0.0
2018-Jul-21 17:00N 46°06' W 122°57'0 0.0
2018-Jul-21 16:30N 46°06' W 122°57'0 0.0
2018-Jul-21 16:00N 46°06' W 122°57'0 0.0
2018-Jul-21 15:30N 46°06' W 122°57'0 0.0
2018-Jul-21 14:57N 46°06' W 122°57'0 0.1
2018-Jul-21 14:30N 46°06' W 122°57'0 0.2
2018-Jul-21 13:30N 46°06' W 122°57'5 9.0
2018-Jul-21 13:00N 46°03' W 122°53'611.6
2018-Jul-21 12:30N 45°57' W 122°49'611.6
2018-Jul-21 12:01N 45°52' W 122°47'911.1
2018-Jul-21 11:12N 45°43' W 122°46'410.9
2018-Jul-21 10:50N 45°39' W 122°46'3 9.1
2018-Jul-21 10:30N 45°36' W 122°47'3 6.3
2018-Jul-21 10:00N 45°34' W 122°44'0 0.0
2018-Jul-21 09:30N 45°34' W 122°44'2 3.5
2018-Jul-21 09:00N 45°35' W 122°46'0 0.0
2018-Jul-21 08:30N 45°35' W 122°46'0 0.0
2018-Jul-21 08:00N 45°35' W 122°46'0 0.0
2018-Jul-21 07:09N 45°35' W 122°46'0 0.0
2018-Jul-21 06:59N 45°35' W 122°46'0 0.0
2018-Jul-21 06:18N 45°35' W 122°46'1 2.6
2018-Jul-21 05:55N 45°34' W 122°44'4 8.9
2018-Jul-21 05:28N 45°32' W 122°40'2 5.0
2018-Jul-21 05:00N 45°29' W 122°40'2 3.5
2018-Jul-21 04:30N 45°31' W 122°40'4 7.9
2018-Jul-21 03:59N 45°34' W 122°44'1 2.1
2018-Jul-21 03:30N 45°35' W 122°45'5 8.8
2018-Jul-21 02:57N 45°31' W 122°40'2 3.7
2018-Jul-21 02:29N 45°30' W 122°40'1 1.3
2018-Jul-21 02:00N 45°29' W 122°40'3 5.1
2018-Jul-21 01:30N 45°32' W 122°40'4 7.7
2018-Jul-21 01:00N 45°34' W 122°44'1 1.3
2018-Jul-21 00:09N 45°35' W 122°46'0 0.0
2018-Jul-20 23:56N 45°35' W 122°46'0 0.0
2018-Jul-20 23:19N 45°35' W 122°46'0 0.0
2018-Jul-20 22:51N 45°35' W 122°46'0 0.0
2018-Jul-20 22:12N 45°35' W 122°46'0 0.0
2018-Jul-20 21:58N 45°35' W 122°46'0 0.0
2018-Jul-20 21:10N 45°35' W 122°46'0 0.0
2018-Jul-20 20:36N 45°35' W 122°46'0 0.0
2018-Jul-20 20:28N 45°35' W 122°46'1 2.8
2018-Jul-20 20:00N 45°34' W 122°44'0 0.2
2018-Jul-20 19:17N 45°34' W 122°44'0 0.0
2018-Jul-20 19:00N 45°34' W 122°44'0 0.0
2018-Jul-20 18:30N 45°34' W 122°44'0 0.0
2018-Jul-20 17:32N 45°34' W 122°44'0 0.0
2018-Jul-20 17:29N 45°34' W 122°44'0 0.0
2018-Jul-20 16:53N 45°34' W 122°44'0 0.0
2018-Jul-20 16:20N 45°34' W 122°44'0 0.0
2018-Jul-20 16:01N 45°34' W 122°44'0 0.6
2018-Jul-20 15:30N 45°34' W 122°44'2 2.9
2018-Jul-20 14:54N 45°35' W 122°46'0 0.0
2018-Jul-20 14:16N 45°35' W 122°46'0 0.0
2018-Jul-20 14:00N 45°35' W 122°46'0 0.0
2018-Jul-20 13:30N 45°35' W 122°46'0 0.0
2018-Jul-20 13:00N 45°35' W 122°46'0 0.0
2018-Jul-20 12:30N 45°35' W 122°46'0 0.0
2018-Jul-20 12:00N 45°35' W 122°46'0 0.0
2018-Jul-20 11:30N 45°35' W 122°46'0 0.0
2018-Jul-20 11:00N 45°35' W 122°46'0 0.0
2018-Jul-20 10:30N 45°35' W 122°46'0 0.0
2018-Jul-20 10:01N 45°35' W 122°46'0 0.0
2018-Jul-20 09:31N 45°35' W 122°46'0 0.0
2018-Jul-20 08:58N 45°35' W 122°46'2 3.6
2018-Jul-20 08:30N 45°34' W 122°44'5 8.8
2018-Jul-20 07:55N 45°38' W 122°47'3 6.8
2018-Jul-20 07:30N 45°38' W 122°43'0 0.5
2018-Jul-20 06:59N 45°38' W 122°43'0 0.0
2018-Jul-20 06:30N 45°38' W 122°43'0 0.1
2018-Jul-20 06:00N 45°38' W 122°43'0 0.1
2018-Jul-20 05:30N 45°38' W 122°43'0 0.1
2018-Jul-20 04:58N 45°38' W 122°43'0 0.6
2018-Jul-20 04:30N 45°38' W 122°43'0 0.1
2018-Jul-20 03:56N 45°38' W 122°43'0 0.0
2018-Jul-20 03:30N 45°38' W 122°43'0 0.0
2018-Jul-20 03:00N 45°38' W 122°43'3 6.4
2018-Jul-20 02:30N 45°38' W 122°47'4 7.2
2018-Jul-20 01:59N 45°34' W 122°45'1 2.2
2018-Jul-20 01:30N 45°34' W 122°43'2 4.8
2018-Jul-20 01:00N 45°35' W 122°46'2 4.4
2018-Jul-20 00:30N 45°37' W 122°47'0 0.3
2018-Jul-20 00:00N 45°37' W 122°47'3 5.0
2018-Jul-19 23:29N 45°40' W 122°46'3 5.2
2018-Jul-19 23:00N 45°42' W 122°46'3 5.4
2018-Jul-19 22:30N 45°45' W 122°46'3 5.3
2018-Jul-19 21:59N 45°48' W 122°47'2 5.1
2018-Jul-19 21:30N 45°50' W 122°47'3 5.0
2018-Jul-19 21:00N 45°53' W 122°48'2 5.0
2018-Jul-19 20:30N 45°55' W 122°48'3 5.2
2018-Jul-19 20:00N 45°58' W 122°49'3 5.5
2018-Jul-19 19:30N 45°60' W 122°51'3 5.5
2018-Jul-19 19:00N 46°02' W 122°53'3 5.4
2018-Jul-19 18:30N 46°05' W 122°54'3 5.8
2018-Jul-19 18:00N 46°06' W 122°58'4 5.9
2018-Jul-19 17:18N 46°09' W 123°02'3 6.1
2018-Jul-19 16:53N 46°10' W 123°06'2 6.2
2018-Jul-19 16:30N 46°11' W 123°08'3 6.3
2018-Jul-19 16:00N 46°10' W 123°13'4 6.6
2018-Jul-19 15:24N 46°09' W 123°18'3 6.7
2018-Jul-19 14:55N 46°09' W 123°23'6 6.5
2018-Jul-19 14:00N 46°14' W 123°26'4 6.5
2018-Jul-19 13:27N 46°16' W 123°30'3 7.6
2018-Jul-19 13:00N 46°15' W 123°35'4 7.6
2018-Jul-19 12:30N 46°15' W 123°41'2 4.8
2018-Jul-19 12:01N 46°14' W 123°44'4 7.4
2018-Jul-19 11:31N 46°12' W 123°48'4 7.4
2018-Jul-19 11:01N 46°11' W 123°54'4 7.2
2018-Jul-19 10:31N 46°13' W 123°58'1 2.5
2018-Jul-19 09:55N 46°14' W 123°59'2 4.6
2018-Jul-19 09:30N 46°13' W 123°57'3 5.6
2018-Jul-19 09:00N 46°11' W 123°54'4 7.2
2018-Jul-19 08:30N 46°12' W 123°49'0 0.0
2018-Jul-19 08:00N 46°12' W 123°49'0 0.2
2018-Jul-19 07:31N 46°12' W 123°49'0 0.5
2018-Jul-19 06:59N 46°12' W 123°49'510.8
2018-Jul-19 06:31N 46°14' W 123°42'611.0
2018-Jul-19 06:01N 46°15' W 123°35'510.4
2018-Jul-19 05:30N 46°15' W 123°27'5 9.9
2018-Jul-19 05:00N 46°11' W 123°25'5 9.4
2018-Jul-19 04:30N 46°09' W 123°19'5 9.3
2018-Jul-19 04:00N 46°10' W 123°13'4 8.8
2018-Jul-19 03:30N 46°11' W 123°07'4 8.3
2018-Jul-19 03:00N 46°09' W 123°02'5 9.2
2018-Jul-19 02:30N 46°06' W 122°57'4 8.9
2018-Jul-19 02:00N 46°02' W 122°53'510.2
2018-Jul-19 01:30N 45°58' W 122°49'510.6
2018-Jul-19 01:00N 45°53' W 122°48'510.5
2018-Jul-19 00:30N 45°48' W 122°47'510.3
2018-Jul-19 00:00N 45°42' W 122°46'4 9.0
2018-Jul-18 23:30N 45°38' W 122°47'4 7.7
2018-Jul-18 22:59N 45°34' W 122°44'2 3.6
2018-Jul-18 22:20N 45°33' W 122°42'0 0.0
2018-Jul-18 22:00N 45°33' W 122°42'1 1.9
2018-Jul-18 21:30N 45°34' W 122°43'2 4.4
2018-Jul-18 20:58N 45°35' W 122°46'0 0.0
2018-Jul-18 19:39N 45°35' W 122°46'0 0.0
2018-Jul-18 18:58N 45°35' W 122°46'0 0.0
2018-Jul-18 18:20N 45°35' W 122°46'0 0.0
2018-Jul-18 18:00N 45°35' W 122°46'0 0.0
2018-Jul-18 17:30N 45°35' W 122°46'0 0.0
2018-Jul-18 16:52N 45°35' W 122°46'0 0.0
2018-Jul-18 16:30N 45°35' W 122°46'0 0.0
2018-Jul-18 15:49N 45°35' W 122°46'0 0.0
2018-Jul-18 15:26N 45°35' W 122°46'0 0.0
2018-Jul-18 14:43N 45°35' W 122°46'0 0.0
2018-Jul-18 14:24N 45°35' W 122°46'0 0.0
2018-Jul-18 13:20N 45°35' W 122°46'0 0.0
2018-Jul-18 12:56N 45°35' W 122°46'0 0.0
2018-Jul-18 12:15N 45°35' W 122°46'0 0.0
2018-Jul-18 11:58N 45°35' W 122°46'0 0.0
2018-Jul-18 11:21N 45°35' W 122°46'0 0.0
2018-Jul-18 10:00N 45°35' W 122°46'0 0.0
2018-Jul-18 09:30N 45°35' W 122°46'0 0.0
2018-Jul-18 08:58N 45°35' W 122°46'0 0.0
2018-Jul-18 07:25N 45°35' W 122°46'1 3.0
2018-Jul-18 06:59N 45°34' W 122°44'1 1.3
2018-Jul-18 06:30N 45°35' W 122°45'1 1.4
2018-Jul-18 06:00N 45°35' W 122°46'0 0.0
2018-Jul-18 05:30N 45°35' W 122°46'0 0.0
2018-Jul-18 04:48N 45°35' W 122°46'0 0.0
2018-Jul-18 04:30N 45°35' W 122°46'0 0.0
2018-Jul-18 03:54N 45°35' W 122°46'0 0.0
2018-Jul-18 03:30N 45°35' W 122°46'0 0.0
2018-Jul-18 02:59N 45°35' W 122°46'0 0.0
2018-Jul-18 02:30N 45°35' W 122°46'0 0.0
2018-Jul-18 02:00N 45°35' W 122°46'2 4.0
2018-Jul-18 01:30N 45°34' W 122°43'5 5.9
2018-Jul-18 00:40N 45°38' W 122°47'2 9.2
2018-Jul-18 00:30N 45°40' W 122°46'4 8.9
2018-Jul-18 00:00N 45°44' W 122°46'4 8.9
2018-Jul-17 23:30N 45°48' W 122°48'4 8.6
2018-Jul-17 23:00N 45°53' W 122°48'4 8.5
2018-Jul-17 22:30N 45°57' W 122°49'4 8.8
2018-Jul-17 22:00N 46°01' W 122°52'4 8.5
2018-Jul-17 21:30N 46°05' W 122°54'2 4.4
2018-Jul-17 21:00N 46°06' W 122°57'0 0.0
2018-Jul-17 20:30N 46°06' W 122°57'0 0.0
2018-Jul-17 20:00N 46°06' W 122°57'0 0.0
2018-Jul-17 19:29N 46°06' W 122°57'0 0.0
2018-Jul-17 19:00N 46°06' W 122°57'0 0.0
2018-Jul-17 18:30N 46°06' W 122°57'0 0.0
2018-Jul-17 18:00N 46°06' W 122°57'0 0.0
2018-Jul-17 17:30N 46°06' W 122°57'0 0.0
2018-Jul-17 17:00N 46°06' W 122°57'0 0.0
2018-Jul-17 16:14N 46°06' W 122°57'0 0.0
2018-Jul-17 16:00N 46°06' W 122°57'0 0.0
2018-Jul-17 15:30N 46°06' W 122°57'0 0.0
2018-Jul-17 15:00N 46°06' W 122°57'1 2.5
2018-Jul-17 14:29N 46°05' W 122°55'510.3
2018-Jul-17 14:00N 46°01' W 122°52'510.7
2018-Jul-17 13:30N 45°56' W 122°48'611.0
2018-Jul-17 13:00N 45°51' W 122°47'510.7
2018-Jul-17 12:30N 45°45' W 122°46'710.6
2018-Jul-17 11:50N 45°38' W 122°47'4 9.0
2018-Jul-17 11:23N 45°35' W 122°45'1 2.9
2018-Jul-17 11:00N 45°34' W 122°44'2 2.4
2018-Jul-17 10:15N 45°35' W 122°46'0 0.0
2018-Jul-17 10:00N 45°35' W 122°46'0 0.0
2018-Jul-17 09:30N 45°35' W 122°46'0 0.0
2018-Jul-17 09:00N 45°35' W 122°46'0 0.0
2018-Jul-17 08:30N 45°35' W 122°46'0 0.0
2018-Jul-17 08:00N 45°35' W 122°46'0 0.0
2018-Jul-17 07:30N 45°35' W 122°46'0 0.0
2018-Jul-17 07:00N 45°35' W 122°46'0 0.0
2018-Jul-17 06:30N 45°35' W 122°46'0 0.0
2018-Jul-17 05:58N 45°35' W 122°46'0 0.0
2018-Jul-17 05:30N 45°35' W 122°46'0 0.0
2018-Jul-17 05:00N 45°35' W 122°46'0 0.0
2018-Jul-17 04:30N 45°35' W 122°46'0 0.0
2018-Jul-17 04:00N 45°35' W 122°46'1 1.8
2018-Jul-17 03:30N 45°34' W 122°45'0 0.8
2018-Jul-17 02:57N 45°35' W 122°45'4 8.7
2018-Jul-17 02:30N 45°38' W 122°47'5 9.4
2018-Jul-17 02:00N 45°43' W 122°46'5 9.2
2018-Jul-17 01:30N 45°48' W 122°47'5 9.0
2018-Jul-17 01:00N 45°52' W 122°47'5 9.0
2018-Jul-17 00:30N 45°57' W 122°49'9 9.0
2018-Jul-16 23:30N 46°05' W 122°54'4 8.7
2018-Jul-16 23:00N 46°07' W 122°59'4 8.6
2018-Jul-16 22:30N 46°10' W 123°04'4 8.5
2018-Jul-16 22:00N 46°11' W 123°10'4 8.4
2018-Jul-16 21:30N 46°09' W 123°15'4 8.2
2018-Jul-16 21:00N 46°09' W 123°21'4 7.8
2018-Jul-16 20:30N 46°11' W 123°26'4 8.0
2018-Jul-16 20:00N 46°15' W 123°27'4 7.4
2018-Jul-16 19:30N 46°16' W 123°32'4 8.2
2018-Jul-16 19:00N 46°15' W 123°38'3 6.6
2018-Jul-16 18:30N 46°14' W 123°42'0 0.0
2018-Jul-16 18:00N 46°14' W 123°42'0 0.0
2018-Jul-16 17:30N 46°14' W 123°42'0 0.0
2018-Jul-16 17:01N 46°14' W 123°42'0 0.0
2018-Jul-16 16:31N 46°14' W 123°42'0 0.0
2018-Jul-16 16:01N 46°14' W 123°42'0 0.0
2018-Jul-16 15:31N 46°14' W 123°42'0 0.0
2018-Jul-16 15:01N 46°14' W 123°42'510.3
2018-Jul-16 14:31N 46°15' W 123°35'5 9.9
2018-Jul-16 14:00N 46°16' W 123°28'5 9.7
2018-Jul-16 13:30N 46°11' W 123°26'5 9.1
2018-Jul-16 13:00N 46°09' W 123°20'4 8.8
2018-Jul-16 12:30N 46°10' W 123°14'4 8.7
2018-Jul-16 12:00N 46°11' W 123°08'4 9.0
2018-Jul-16 11:30N 46°09' W 123°03'5 9.4
2018-Jul-16 11:00N 46°06' W 122°57'5 9.1
2018-Jul-16 10:31N 46°03' W 122°53'510.9
2018-Jul-16 10:01N 45°58' W 122°49'611.2
2018-Jul-16 09:30N 45°53' W 122°48'510.8
2018-Jul-16 09:00N 45°47' W 122°47'510.8
2018-Jul-16 08:30N 45°42' W 122°46'5 9.9
2018-Jul-16 08:00N 45°37' W 122°47'4 8.2
2018-Jul-16 07:30N 45°34' W 122°44'2 3.5
2018-Jul-16 07:00N 45°35' W 122°46'0 0.0
2018-Jul-16 06:30N 45°35' W 122°46'0 0.0
2018-Jul-16 06:00N 45°35' W 122°46'0 0.0
2018-Jul-16 05:30N 45°35' W 122°46'0 0.0
2018-Jul-16 05:00N 45°35' W 122°46'0 0.0
2018-Jul-16 04:30N 45°35' W 122°46'0 0.0
2018-Jul-16 04:00N 45°35' W 122°46'0 0.0
2018-Jul-16 03:30N 45°35' W 122°46'0 0.0
2018-Jul-16 03:00N 45°35' W 122°46'0 0.0
2018-Jul-16 02:30N 45°35' W 122°46'0 0.0
2018-Jul-16 02:00N 45°35' W 122°46'0 0.0
2018-Jul-16 01:30N 45°35' W 122°46'0 0.0
2018-Jul-16 01:00N 45°35' W 122°46'0 0.0
2018-Jul-16 00:30N 45°35' W 122°46'0 0.0
2018-Jul-16 00:00N 45°35' W 122°46'0 0.0
2018-Jul-15 23:31N 45°35' W 122°46'0 0.0
2018-Jul-15 23:00N 45°35' W 122°46'0 0.0
2018-Jul-15 22:30N 45°35' W 122°46'0 0.0
2018-Jul-15 22:00N 45°35' W 122°46'0 0.0
2018-Jul-15 21:30N 45°35' W 122°46'0 0.0
2018-Jul-15 21:00N 45°35' W 122°46'0 0.0
2018-Jul-15 20:30N 45°35' W 122°46'0 0.0
2018-Jul-15 20:00N 45°35' W 122°46'0 0.0
2018-Jul-15 19:30N 45°35' W 122°46'0 0.0
2018-Jul-15 19:00N 45°35' W 122°46'0 0.0
2018-Jul-15 18:30N 45°35' W 122°46'0 0.0
2018-Jul-15 18:00N 45°35' W 122°46'0 0.0
2018-Jul-15 17:30N 45°35' W 122°46'0 0.0
2018-Jul-15 17:00N 45°35' W 122°46'0 0.0
2018-Jul-15 16:30N 45°35' W 122°46'0 0.0
2018-Jul-15 16:00N 45°35' W 122°46'0 0.0
2018-Jul-15 15:30N 45°35' W 122°46'0 0.0
2018-Jul-15 15:00N 45°35' W 122°46'0 0.0
2018-Jul-15 14:30N 45°35' W 122°46'0 0.0
2018-Jul-15 14:00N 45°35' W 122°46'0 0.0
2018-Jul-15 13:29N 45°35' W 122°46'0 0.0
2018-Jul-15 13:00N 45°35' W 122°46'0 0.0
2018-Jul-15 12:30N 45°35' W 122°46'0 0.0
2018-Jul-15 12:00N 45°35' W 122°46'0 0.0
2018-Jul-15 11:31N 45°35' W 122°46'0 0.0
2018-Jul-15 11:00N 45°35' W 122°46'0 0.0
2018-Jul-15 10:30N 45°35' W 122°46'0 0.0
2018-Jul-15 10:00N 45°35' W 122°46'0 0.0
2018-Jul-15 09:30N 45°35' W 122°46'0 0.0
2018-Jul-15 09:00N 45°35' W 122°46'0 0.0
2018-Jul-15 08:30N 45°35' W 122°46'0 0.0
2018-Jul-15 08:00N 45°35' W 122°46'0 0.0
2018-Jul-15 07:30N 45°35' W 122°46'0 0.0
2018-Jul-15 06:59N 45°35' W 122°46'0 0.0
2018-Jul-15 06:30N 45°35' W 122°46'0 0.0
2018-Jul-15 06:00N 45°35' W 122°46'0 0.0
2018-Jul-15 05:30N 45°35' W 122°46'0 0.0
2018-Jul-15 05:00N 45°35' W 122°46'0 0.0
2018-Jul-15 04:30N 45°35' W 122°46'0 0.0
2018-Jul-15 04:00N 45°35' W 122°46'0 0.0
2018-Jul-15 03:30N 45°35' W 122°46'0 0.0
2018-Jul-15 03:00N 45°35' W 122°46'0 0.0
2018-Jul-15 02:30N 45°35' W 122°46'0 0.0
2018-Jul-15 02:00N 45°35' W 122°46'0 0.0
2018-Jul-15 01:30N 45°35' W 122°46'0 0.0
2018-Jul-15 01:00N 45°35' W 122°46'0 0.0
2018-Jul-15 00:30N 45°35' W 122°46'0 0.0
2018-Jul-15 00:00N 45°35' W 122°46'0 0.0
2018-Jul-14 23:13N 45°35' W 122°46'0 0.0
2018-Jul-14 23:00N 45°35' W 122°46'0 0.0
2018-Jul-14 22:30N 45°35' W 122°46'0 0.0
2018-Jul-14 22:00N 45°35' W 122°46'0 0.0
2018-Jul-14 21:30N 45°35' W 122°46'0 0.0
2018-Jul-14 21:00N 45°35' W 122°46'0 0.0
2018-Jul-14 20:30N 45°35' W 122°46'0 0.0
2018-Jul-14 20:00N 45°35' W 122°46'0 0.0
2018-Jul-14 19:30N 45°35' W 122°46'0 0.0
2018-Jul-14 19:00N 45°35' W 122°46'0 0.0
2018-Jul-14 18:29N 45°35' W 122°46'0 0.0
2018-Jul-14 18:00N 45°35' W 122°46'0 0.0
2018-Jul-14 17:30N 45°35' W 122°46'0 0.0
2018-Jul-14 17:00N 45°35' W 122°46'0 0.0
2018-Jul-14 16:30N 45°35' W 122°46'0 0.0
2018-Jul-14 16:00N 45°35' W 122°46'0 0.0
2018-Jul-14 15:30N 45°35' W 122°46'0 0.0
2018-Jul-14 15:00N 45°35' W 122°46'0 0.0
2018-Jul-14 14:30N 45°35' W 122°46'0 0.0
2018-Jul-14 13:29N 45°35' W 122°46'0 0.0
2018-Jul-14 13:00N 45°35' W 122°46'0 0.0
2018-Jul-14 12:30N 45°35' W 122°46'0 0.0
2018-Jul-14 12:00N 45°35' W 122°46'0 0.0
2018-Jul-14 11:30N 45°35' W 122°46'0 0.0
2018-Jul-14 11:00N 45°35' W 122°46'0 0.0
2018-Jul-14 10:30N 45°35' W 122°46'0 0.0
2018-Jul-14 10:00N 45°35' W 122°46'0 0.0
2018-Jul-14 09:15N 45°35' W 122°46'0 0.0
2018-Jul-14 09:00N 45°35' W 122°46'0 0.0
2018-Jul-14 08:30N 45°35' W 122°46'0 0.0
2018-Jul-14 08:00N 45°35' W 122°46'0 0.0
2018-Jul-14 07:30N 45°35' W 122°46'0 0.0
2018-Jul-14 06:59N 45°35' W 122°46'0 0.0
2018-Jul-14 06:30N 45°35' W 122°46'0 0.0
2018-Jul-14 06:00N 45°35' W 122°46'0 0.0
2018-Jul-14 05:30N 45°35' W 122°46'0 0.0
2018-Jul-14 05:00N 45°35' W 122°46'0 0.0
2018-Jul-14 04:30N 45°35' W 122°46'0 0.0
2018-Jul-14 04:00N 45°35' W 122°46'0 0.0
2018-Jul-14 03:26N 45°35' W 122°46'0 0.0
2018-Jul-14 03:00N 45°35' W 122°46'0 0.0
2018-Jul-14 02:30N 45°35' W 122°46'0 0.0
2018-Jul-14 02:00N 45°35' W 122°46'0 0.0
2018-Jul-14 01:30N 45°35' W 122°46'0 0.0
2018-Jul-14 01:00N 45°35' W 122°46'0 0.0
2018-Jul-14 00:30N 45°35' W 122°46'0 0.0
2018-Jul-13 23:49N 45°35' W 122°46'0 0.0
2018-Jul-13 23:30N 45°35' W 122°46'0 0.0
2018-Jul-13 23:00N 45°35' W 122°46'0 0.0
2018-Jul-13 22:30N 45°35' W 122°46'0 0.0
2018-Jul-13 22:00N 45°35' W 122°46'0 0.0
2018-Jul-13 21:30N 45°35' W 122°46'0 0.0
2018-Jul-13 21:00N 45°35' W 122°46'0 0.0
2018-Jul-13 20:16N 45°35' W 122°46'0 0.0
2018-Jul-13 20:00N 45°35' W 122°46'0 0.0
2018-Jul-13 19:30N 45°35' W 122°46'0 0.0
2018-Jul-13 19:00N 45°35' W 122°46'0 0.0
2018-Jul-13 18:30N 45°35' W 122°46'0 0.0
2018-Jul-13 18:00N 45°35' W 122°46'0 0.0
2018-Jul-13 17:30N 45°35' W 122°46'0 0.0
2018-Jul-13 17:00N 45°35' W 122°46'0 0.0
2018-Jul-13 16:30N 45°35' W 122°46'0 0.0
2018-Jul-13 16:00N 45°35' W 122°46'0 0.0
2018-Jul-13 15:30N 45°35' W 122°46'0 0.0
2018-Jul-13 15:00N 45°35' W 122°46'0 0.0
2018-Jul-13 14:30N 45°35' W 122°46'0 0.0
2018-Jul-13 13:30N 45°35' W 122°46'0 0.0
2018-Jul-13 13:00N 45°35' W 122°46'3 6.2
2018-Jul-13 12:30N 45°33' W 122°42'4 7.6
2018-Jul-13 12:00N 45°30' W 122°40'0 0.8
2018-Jul-13 11:30N 45°29' W 122°40'1 2.3
2018-Jul-13 11:00N 45°30' W 122°40'2 3.9
2018-Jul-13 10:30N 45°32' W 122°41'4 7.1
2018-Jul-13 10:00N 45°35' W 122°45'3 6.9
2018-Jul-13 09:30N 45°37' W 122°47'2 4.8
2018-Jul-13 09:00N 45°39' W 122°45'4 8.2
2018-Jul-13 08:30N 45°37' W 122°40'5 8.2
2018-Jul-13 07:52N 45°36' W 122°32'4 8.2
2018-Jul-13 07:21N 45°34' W 122°27'4 8.6
2018-Jul-13 06:55N 45°34' W 122°21'3 8.0
2018-Jul-13 06:29N 45°33' W 122°17'  
Track history (hours):
 
Tides and Currents Weather Stations Pressure Air Temp Water Temp Dewpoint Dewpoint Depression Visibility Wind Speed Wind Dir Waves Ship Positions

Willamette Champion

Owner: Harley Marine Services, INC, Seattle, WA. More information available from US FCC via Universal Licensing System and Coast Guard Vessel Documentation Center.

Last reported at 2018-Jul-22 19:16 UTC. Time now 2018-Jul-22 21:58 UTC.
Position N 45°36' W 122°34'.

Length 27 m.

Type: Towing. MMSI: 2533572.

Date/timePositionNaut miles runAvg speedWind from/ knotsBaromVisibWave heightAir tempDewpointWater temp
2018-Jul-22 19:16N 45°36' W 122°34'2 7.3
2018-Jul-22 18:57N 45°36' W 122°37'3 7.1
2018-Jul-22 18:30N 45°38' W 122°41'3 5.6
2018-Jul-22 18:00N 45°39' W 122°45'3 5.8
2018-Jul-22 17:30N 45°37' W 122°47'2 4.1
2018-Jul-22 17:01N 45°35' W 122°46'0 0.0
2018-Jul-22 16:30N 45°35' W 122°46'0 0.0
2018-Jul-22 15:59N 45°35' W 122°46'0 0.0
2018-Jul-22 15:01N 45°35' W 122°46'0 0.0
2018-Jul-22 14:30N 45°35' W 122°46'1 2.9
2018-Jul-22 14:00N 45°34' W 122°44'0 0.0
2018-Jul-22 13:30N 45°34' W 122°44'0 0.0
2018-Jul-22 13:00N 45°34' W 122°44'0 0.0
2018-Jul-22 12:30N 45°34' W 122°44'1 1.4
2018-Jul-22 11:45N 45°35' W 122°45'0 1.6
2018-Jul-22 11:30N 45°35' W 122°46'0 0.0
2018-Jul-22 11:01N 45°35' W 122°46'0 0.0
2018-Jul-22 10:30N 45°35' W 122°46'0 0.0
2018-Jul-22 09:46N 45°35' W 122°46'0 0.0
2018-Jul-22 09:29N 45°35' W 122°46'0 0.0
2018-Jul-22 08:59N 45°35' W 122°46'0 0.0
2018-Jul-22 08:30N 45°35' W 122°46'0 0.0
2018-Jul-22 08:00N 45°35' W 122°46'0 0.0
2018-Jul-22 07:30N 45°35' W 122°46'0 0.0
2018-Jul-22 06:47N 45°35' W 122°46'0 0.0
2018-Jul-22 06:29N 45°35' W 122°46'0 0.0
2018-Jul-22 06:00N 45°35' W 122°46'0 0.0
2018-Jul-22 05:31N 45°35' W 122°46'0 0.0
2018-Jul-22 04:49N 45°35' W 122°46'0 0.0
2018-Jul-22 04:30N 45°35' W 122°46'0 0.0
2018-Jul-22 04:00N 45°35' W 122°46'0 0.0
2018-Jul-22 03:30N 45°35' W 122°46'0 0.0
2018-Jul-22 03:00N 45°35' W 122°46'0 0.0
2018-Jul-22 02:14N 45°35' W 122°46'0 0.0
2018-Jul-22 02:00N 45°35' W 122°46'2 3.4
2018-Jul-22 01:30N 45°34' W 122°44'5 9.0
2018-Jul-22 01:00N 45°37' W 122°47'5 9.5
2018-Jul-22 00:30N 45°42' W 122°46'5 9.4
2018-Jul-21 23:59N 45°47' W 122°46'4 9.0
2018-Jul-21 23:29N 45°51' W 122°47'4 7.5
2018-Jul-21 23:00N 45°55' W 122°49'4 8.9
2018-Jul-21 22:30N 45°59' W 122°51'5 9.4
2018-Jul-21 22:00N 46°03' W 122°53'4 8.8
2018-Jul-21 21:30N 46°06' W 122°58'1 1.5
2018-Jul-21 21:00N 46°06' W 122°57'0 0.0
2018-Jul-21 20:30N 46°06' W 122°57'0 0.0
2018-Jul-21 20:00N 46°06' W 122°57'0 0.0
2018-Jul-21 19:30N 46°06' W 122°57'0 0.0
2018-Jul-21 19:00N 46°06' W 122°57'0 0.0
2018-Jul-21 18:30N 46°06' W 122°57'0 0.0
2018-Jul-21 17:56N 46°06' W 122°57'0 0.0
2018-Jul-21 17:30N 46°06' W 122°57'0 0.0
2018-Jul-21 17:00N 46°06' W 122°57'0 0.0
2018-Jul-21 16:30N 46°06' W 122°57'0 0.0
2018-Jul-21 16:00N 46°06' W 122°57'0 0.0
2018-Jul-21 15:30N 46°06' W 122°57'0 0.0
2018-Jul-21 14:57N 46°06' W 122°57'0 0.1
2018-Jul-21 14:30N 46°06' W 122°57'0 0.2
2018-Jul-21 13:30N 46°06' W 122°57'5 9.0
2018-Jul-21 13:00N 46°03' W 122°53'611.6
2018-Jul-21 12:30N 45°57' W 122°49'611.6
2018-Jul-21 12:01N 45°52' W 122°47'911.1
2018-Jul-21 11:12N 45°43' W 122°46'410.9
2018-Jul-21 10:50N 45°39' W 122°46'3 9.1
2018-Jul-21 10:30N 45°36' W 122°47'3 6.3
2018-Jul-21 10:00N 45°34' W 122°44'0 0.0
2018-Jul-21 09:30N 45°34' W 122°44'2 3.5
2018-Jul-21 09:00N 45°35' W 122°46'0 0.0
2018-Jul-21 08:30N 45°35' W 122°46'0 0.0
2018-Jul-21 08:00N 45°35' W 122°46'0 0.0
2018-Jul-21 07:09N 45°35' W 122°46'0 0.0
2018-Jul-21 06:59N 45°35' W 122°46'0 0.0
2018-Jul-21 06:18N 45°35' W 122°46'1 2.6
2018-Jul-21 05:55N 45°34' W 122°44'4 8.9
2018-Jul-21 05:28N 45°32' W 122°40'2 5.0
2018-Jul-21 05:00N 45°29' W 122°40'2 3.5
2018-Jul-21 04:30N 45°31' W 122°40'4 7.9
2018-Jul-21 03:59N 45°34' W 122°44'1 2.1
2018-Jul-21 03:30N 45°35' W 122°45'5 8.8
2018-Jul-21 02:57N 45°31' W 122°40'2 3.7
2018-Jul-21 02:29N 45°30' W 122°40'1 1.3
2018-Jul-21 02:00N 45°29' W 122°40'3 5.1
2018-Jul-21 01:30N 45°32' W 122°40'4 7.7
2018-Jul-21 01:00N 45°34' W 122°44'1 1.3
2018-Jul-21 00:09N 45°35' W 122°46'0 0.0
2018-Jul-20 23:56N 45°35' W 122°46'0 0.0
2018-Jul-20 23:19N 45°35' W 122°46'0 0.0
2018-Jul-20 22:51N 45°35' W 122°46'0 0.0
2018-Jul-20 22:12N 45°35' W 122°46'0 0.0
2018-Jul-20 21:58N 45°35' W 122°46'0 0.0
2018-Jul-20 21:10N 45°35' W 122°46'0 0.0
2018-Jul-20 20:36N 45°35' W 122°46'0 0.0
2018-Jul-20 20:28N 45°35' W 122°46'1 2.8
2018-Jul-20 20:00N 45°34' W 122°44'0 0.2
2018-Jul-20 19:17N 45°34' W 122°44'0 0.0
2018-Jul-20 19:00N 45°34' W 122°44'0 0.0
2018-Jul-20 18:30N 45°34' W 122°44'0 0.0
2018-Jul-20 17:32N 45°34' W 122°44'0 0.0
2018-Jul-20 17:29N 45°34' W 122°44'0 0.0
2018-Jul-20 16:53N 45°34' W 122°44'0 0.0
2018-Jul-20 16:20N 45°34' W 122°44'0 0.0
2018-Jul-20 16:01N 45°34' W 122°44'0 0.6
2018-Jul-20 15:30N 45°34' W 122°44'2 2.9
2018-Jul-20 14:54N 45°35' W 122°46'0 0.0
2018-Jul-20 14:16N 45°35' W 122°46'0 0.0
2018-Jul-20 14:00N 45°35' W 122°46'0 0.0
2018-Jul-20 13:30N 45°35' W 122°46'0 0.0
2018-Jul-20 13:00N 45°35' W 122°46'0 0.0
2018-Jul-20 12:30N 45°35' W 122°46'0 0.0
2018-Jul-20 12:00N 45°35' W 122°46'0 0.0
2018-Jul-20 11:30N 45°35' W 122°46'0 0.0
2018-Jul-20 11:00N 45°35' W 122°46'0 0.0
2018-Jul-20 10:30N 45°35' W 122°46'0 0.0
2018-Jul-20 10:01N 45°35' W 122°46'0 0.0
2018-Jul-20 09:31N 45°35' W 122°46'0 0.0
2018-Jul-20 08:58N 45°35' W 122°46'2 3.6
2018-Jul-20 08:30N 45°34' W 122°44'5 8.8
2018-Jul-20 07:55N 45°38' W 122°47'3 6.8
2018-Jul-20 07:30N 45°38' W 122°43'0 0.5
2018-Jul-20 06:59N 45°38' W 122°43'0 0.0
2018-Jul-20 06:30N 45°38' W 122°43'0 0.1
2018-Jul-20 06:00N 45°38' W 122°43'0 0.1
2018-Jul-20 05:30N 45°38' W 122°43'0 0.1
2018-Jul-20 04:58N 45°38' W 122°43'0 0.6
2018-Jul-20 04:30N 45°38' W 122°43'0 0.1
2018-Jul-20 03:56N 45°38' W 122°43'0 0.0
2018-Jul-20 03:30N 45°38' W 122°43'0 0.0
2018-Jul-20 03:00N 45°38' W 122°43'3 6.4
2018-Jul-20 02:30N 45°38' W 122°47'4 7.2
2018-Jul-20 01:59N 45°34' W 122°45'1 2.2
2018-Jul-20 01:30N 45°34' W 122°43'2 4.8
2018-Jul-20 01:00N 45°35' W 122°46'2 4.4
2018-Jul-20 00:30N 45°37' W 122°47'0 0.3
2018-Jul-20 00:00N 45°37' W 122°47'3 5.0
2018-Jul-19 23:29N 45°40' W 122°46'3 5.2
2018-Jul-19 23:00N 45°42' W 122°46'3 5.4
2018-Jul-19 22:30N 45°45' W 122°46'3 5.3
2018-Jul-19 21:59N 45°48' W 122°47'2 5.1
2018-Jul-19 21:30N 45°50' W 122°47'3 5.0
2018-Jul-19 21:00N 45°53' W 122°48'2 5.0
2018-Jul-19 20:30N 45°55' W 122°48'3 5.2
2018-Jul-19 20:00N 45°58' W 122°49'3 5.5
2018-Jul-19 19:30N 45°60' W 122°51'3 5.5
2018-Jul-19 19:00N 46°02' W 122°53'3 5.4
2018-Jul-19 18:30N 46°05' W 122°54'3 5.8
2018-Jul-19 18:00N 46°06' W 122°58'4 5.9
2018-Jul-19 17:18N 46°09' W 123°02'3 6.1
2018-Jul-19 16:53N 46°10' W 123°06'2 6.2
2018-Jul-19 16:30N 46°11' W 123°08'3 6.3
2018-Jul-19 16:00N 46°10' W 123°13'4 6.6
2018-Jul-19 15:24N 46°09' W 123°18'3 6.7
2018-Jul-19 14:55N 46°09' W 123°23'6 6.5
2018-Jul-19 14:00N 46°14' W 123°26'4 6.5
2018-Jul-19 13:27N 46°16' W 123°30'3 7.6
2018-Jul-19 13:00N 46°15' W 123°35'4 7.6
2018-Jul-19 12:30N 46°15' W 123°41'2 4.8
2018-Jul-19 12:01N 46°14' W 123°44'4 7.4
2018-Jul-19 11:31N 46°12' W 123°48'4 7.4
2018-Jul-19 11:01N 46°11' W 123°54'4 7.2
2018-Jul-19 10:31N 46°13' W 123°58'1 2.5
2018-Jul-19 09:55N 46°14' W 123°59'2 4.6
2018-Jul-19 09:30N 46°13' W 123°57'3 5.6
2018-Jul-19 09:00N 46°11' W 123°54'4 7.2
2018-Jul-19 08:30N 46°12' W 123°49'0 0.0
2018-Jul-19 08:00N 46°12' W 123°49'0 0.2
2018-Jul-19 07:31N 46°12' W 123°49'0 0.5
2018-Jul-19 06:59N 46°12' W 123°49'510.8
2018-Jul-19 06:31N 46°14' W 123°42'611.0
2018-Jul-19 06:01N 46°15' W 123°35'510.4
2018-Jul-19 05:30N 46°15' W 123°27'5 9.9
2018-Jul-19 05:00N 46°11' W 123°25'5 9.4
2018-Jul-19 04:30N 46°09' W 123°19'5 9.3
2018-Jul-19 04:00N 46°10' W 123°13'4 8.8
2018-Jul-19 03:30N 46°11' W 123°07'4 8.3
2018-Jul-19 03:00N 46°09' W 123°02'5 9.2
2018-Jul-19 02:30N 46°06' W 122°57'4 8.9
2018-Jul-19 02:00N 46°02' W 122°53'510.2
2018-Jul-19 01:30N 45°58' W 122°49'510.6
2018-Jul-19 01:00N 45°53' W 122°48'510.5
2018-Jul-19 00:30N 45°48' W 122°47'510.3
2018-Jul-19 00:00N 45°42' W 122°46'4 9.0
2018-Jul-18 23:30N 45°38' W 122°47'4 7.7
2018-Jul-18 22:59N 45°34' W 122°44'2 3.6
2018-Jul-18 22:20N 45°33' W 122°42'0 0.0
2018-Jul-18 22:00N 45°33' W 122°42'1 1.9
2018-Jul-18 21:30N 45°34' W 122°43'2 4.4
2018-Jul-18 20:58N 45°35' W 122°46'0 0.0
2018-Jul-18 19:39N 45°35' W 122°46'0 0.0
2018-Jul-18 18:58N 45°35' W 122°46'0 0.0
2018-Jul-18 18:20N 45°35' W 122°46'0 0.0
2018-Jul-18 18:00N 45°35' W 122°46'0 0.0
2018-Jul-18 17:30N 45°35' W 122°46'0 0.0
2018-Jul-18 16:52N 45°35' W 122°46'0 0.0
2018-Jul-18 16:30N 45°35' W 122°46'0 0.0
2018-Jul-18 15:49N 45°35' W 122°46'0 0.0
2018-Jul-18 15:26N 45°35' W 122°46'0 0.0
2018-Jul-18 14:43N 45°35' W 122°46'0 0.0
2018-Jul-18 14:24N 45°35' W 122°46'0 0.0
2018-Jul-18 13:20N 45°35' W 122°46'0 0.0
2018-Jul-18 12:56N 45°35' W 122°46'0 0.0
2018-Jul-18 12:15N 45°35' W 122°46'0 0.0
2018-Jul-18 11:58N 45°35' W 122°46'0 0.0
2018-Jul-18 11:21N 45°35' W 122°46'0 0.0
2018-Jul-18 10:00N 45°35' W 122°46'0 0.0
2018-Jul-18 09:30N 45°35' W 122°46'0 0.0
2018-Jul-18 08:58N 45°35' W 122°46'0 0.0
2018-Jul-18 07:25N 45°35' W 122°46'1 3.0
2018-Jul-18 06:59N 45°34' W 122°44'1 1.3
2018-Jul-18 06:30N 45°35' W 122°45'1 1.4
2018-Jul-18 06:00N 45°35' W 122°46'0 0.0
2018-Jul-18 05:30N 45°35' W 122°46'0 0.0
2018-Jul-18 04:48N 45°35' W 122°46'0 0.0
2018-Jul-18 04:30N 45°35' W 122°46'0 0.0
2018-Jul-18 03:54N 45°35' W 122°46'0 0.0
2018-Jul-18 03:30N 45°35' W 122°46'0 0.0
2018-Jul-18 02:59N 45°35' W 122°46'0 0.0
2018-Jul-18 02:30N 45°35' W 122°46'0 0.0
2018-Jul-18 02:00N 45°35' W 122°46'2 4.0
2018-Jul-18 01:30N 45°34' W 122°43'5 5.9
2018-Jul-18 00:40N 45°38' W 122°47'2 9.2
2018-Jul-18 00:30N 45°40' W 122°46'4 8.9
2018-Jul-18 00:00N 45°44' W 122°46'4 8.9
2018-Jul-17 23:30N 45°48' W 122°48'4 8.6
2018-Jul-17 23:00N 45°53' W 122°48'4 8.5
2018-Jul-17 22:30N 45°57' W 122°49'4 8.8
2018-Jul-17 22:00N 46°01' W 122°52'4 8.5
2018-Jul-17 21:30N 46°05' W 122°54'2 4.4
2018-Jul-17 21:00N 46°06' W 122°57'0 0.0
2018-Jul-17 20:30N 46°06' W 122°57'0 0.0
2018-Jul-17 20:00N 46°06' W 122°57'0 0.0
2018-Jul-17 19:29N 46°06' W 122°57'0 0.0
2018-Jul-17 19:00N 46°06' W 122°57'0 0.0
2018-Jul-17 18:30N 46°06' W 122°57'0 0.0
2018-Jul-17 18:00N 46°06' W 122°57'0 0.0
2018-Jul-17 17:30N 46°06' W 122°57'0 0.0
2018-Jul-17 17:00N 46°06' W 122°57'0 0.0
2018-Jul-17 16:14N 46°06' W 122°57'0 0.0
2018-Jul-17 16:00N 46°06' W 122°57'0 0.0
2018-Jul-17 15:30N 46°06' W 122°57'0 0.0
2018-Jul-17 15:00N 46°06' W 122°57'1 2.5
2018-Jul-17 14:29N 46°05' W 122°55'510.3
2018-Jul-17 14:00N 46°01' W 122°52'510.7
2018-Jul-17 13:30N 45°56' W 122°48'611.0
2018-Jul-17 13:00N 45°51' W 122°47'510.7
2018-Jul-17 12:30N 45°45' W 122°46'710.6
2018-Jul-17 11:50N 45°38' W 122°47'4 9.0
2018-Jul-17 11:23N 45°35' W 122°45'1 2.9
2018-Jul-17 11:00N 45°34' W 122°44'2 2.4
2018-Jul-17 10:15N 45°35' W 122°46'0 0.0
2018-Jul-17 10:00N 45°35' W 122°46'0 0.0
2018-Jul-17 09:30N 45°35' W 122°46'0 0.0
2018-Jul-17 09:00N 45°35' W 122°46'0 0.0
2018-Jul-17 08:30N 45°35' W 122°46'0 0.0
2018-Jul-17 08:00N 45°35' W 122°46'0 0.0
2018-Jul-17 07:30N 45°35' W 122°46'0 0.0
2018-Jul-17 07:00N 45°35' W 122°46'0 0.0
2018-Jul-17 06:30N 45°35' W 122°46'0 0.0
2018-Jul-17 05:58N 45°35' W 122°46'0 0.0
2018-Jul-17 05:30N 45°35' W 122°46'0 0.0
2018-Jul-17 05:00N 45°35' W 122°46'0 0.0
2018-Jul-17 04:30N 45°35' W 122°46'0 0.0
2018-Jul-17 04:00N 45°35' W 122°46'1 1.8
2018-Jul-17 03:30N 45°34' W 122°45'0 0.8
2018-Jul-17 02:57N 45°35' W 122°45'4 8.7
2018-Jul-17 02:30N 45°38' W 122°47'5 9.4
2018-Jul-17 02:00N 45°43' W 122°46'5 9.2
2018-Jul-17 01:30N 45°48' W 122°47'5 9.0
2018-Jul-17 01:00N 45°52' W 122°47'5 9.0
2018-Jul-17 00:30N 45°57' W 122°49'9 9.0
2018-Jul-16 23:30N 46°05' W 122°54'4 8.7
2018-Jul-16 23:00N 46°07' W 122°59'4 8.6
2018-Jul-16 22:30N 46°10' W 123°04'4 8.5
2018-Jul-16 22:00N 46°11' W 123°10'4 8.4
2018-Jul-16 21:30N 46°09' W 123°15'4 8.2
2018-Jul-16 21:00N 46°09' W 123°21'4 7.8
2018-Jul-16 20:30N 46°11' W 123°26'4 8.0
2018-Jul-16 20:00N 46°15' W 123°27'4 7.4
2018-Jul-16 19:30N 46°16' W 123°32'4 8.2
2018-Jul-16 19:00N 46°15' W 123°38'3 6.6
2018-Jul-16 18:30N 46°14' W 123°42'0 0.0
2018-Jul-16 18:00N 46°14' W 123°42'0 0.0
2018-Jul-16 17:30N 46°14' W 123°42'0 0.0
2018-Jul-16 17:01N 46°14' W 123°42'0 0.0
2018-Jul-16 16:31N 46°14' W 123°42'0 0.0
2018-Jul-16 16:01N 46°14' W 123°42'0 0.0
2018-Jul-16 15:31N 46°14' W 123°42'0 0.0
2018-Jul-16 15:01N 46°14' W 123°42'510.3
2018-Jul-16 14:31N 46°15' W 123°35'5 9.9
2018-Jul-16 14:00N 46°16' W 123°28'5 9.7
2018-Jul-16 13:30N 46°11' W 123°26'5 9.1
2018-Jul-16 13:00N 46°09' W 123°20'4 8.8
2018-Jul-16 12:30N 46°10' W 123°14'4 8.7
2018-Jul-16 12:00N 46°11' W 123°08'4 9.0
2018-Jul-16 11:30N 46°09' W 123°03'5 9.4
2018-Jul-16 11:00N 46°06' W 122°57'5 9.1
2018-Jul-16 10:31N 46°03' W 122°53'510.9
2018-Jul-16 10:01N 45°58' W 122°49'611.2
2018-Jul-16 09:30N 45°53' W 122°48'510.8
2018-Jul-16 09:00N 45°47' W 122°47'510.8
2018-Jul-16 08:30N 45°42' W 122°46'5 9.9
2018-Jul-16 08:00N 45°37' W 122°47'4 8.2
2018-Jul-16 07:30N 45°34' W 122°44'2 3.5
2018-Jul-16 07:00N 45°35' W 122°46'0 0.0
2018-Jul-16 06:30N 45°35' W 122°46'0 0.0
2018-Jul-16 06:00N 45°35' W 122°46'0 0.0
2018-Jul-16 05:30N 45°35' W 122°46'0 0.0
2018-Jul-16 05:00N 45°35' W 122°46'0 0.0
2018-Jul-16 04:30N 45°35' W 122°46'0 0.0
2018-Jul-16 04:00N 45°35' W 122°46'0 0.0
2018-Jul-16 03:30N 45°35' W 122°46'0 0.0
2018-Jul-16 03:00N 45°35' W 122°46'0 0.0
2018-Jul-16 02:30N 45°35' W 122°46'0 0.0
2018-Jul-16 02:00N 45°35' W 122°46'0 0.0
2018-Jul-16 01:30N 45°35' W 122°46'0 0.0
2018-Jul-16 01:00N 45°35' W 122°46'0 0.0
2018-Jul-16 00:30N 45°35' W 122°46'0 0.0
2018-Jul-16 00:00N 45°35' W 122°46'0 0.0
2018-Jul-15 23:31N 45°35' W 122°46'0 0.0
2018-Jul-15 23:00N 45°35' W 122°46'0 0.0
2018-Jul-15 22:30N 45°35' W 122°46'0 0.0
2018-Jul-15 22:00N 45°35' W 122°46'0 0.0
2018-Jul-15 21:30N 45°35' W 122°46'0 0.0
2018-Jul-15 21:00N 45°35' W 122°46'0 0.0
2018-Jul-15 20:30N 45°35' W 122°46'0 0.0
2018-Jul-15 20:00N 45°35' W 122°46'0 0.0
2018-Jul-15 19:30N 45°35' W 122°46'0 0.0
2018-Jul-15 19:00N 45°35' W 122°46'0 0.0
2018-Jul-15 18:30N 45°35' W 122°46'0 0.0
2018-Jul-15 18:00N 45°35' W 122°46'0 0.0
2018-Jul-15 17:30N 45°35' W 122°46'0 0.0
2018-Jul-15 17:00N 45°35' W 122°46'0 0.0
2018-Jul-15 16:30N 45°35' W 122°46'0 0.0
2018-Jul-15 16:00N 45°35' W 122°46'0 0.0
2018-Jul-15 15:30N 45°35' W 122°46'0 0.0
2018-Jul-15 15:00N 45°35' W 122°46'0 0.0
2018-Jul-15 14:30N 45°35' W 122°46'0 0.0
2018-Jul-15 14:00N 45°35' W 122°46'0 0.0
2018-Jul-15 13:29N 45°35' W 122°46'0 0.0
2018-Jul-15 13:00N 45°35' W 122°46'0 0.0
2018-Jul-15 12:30N 45°35' W 122°46'0 0.0
2018-Jul-15 12:00N 45°35' W 122°46'0 0.0
2018-Jul-15 11:31N 45°35' W 122°46'0 0.0
2018-Jul-15 11:00N 45°35' W 122°46'0 0.0
2018-Jul-15 10:30N 45°35' W 122°46'0 0.0
2018-Jul-15 10:00N 45°35' W 122°46'0 0.0
2018-Jul-15 09:30N 45°35' W 122°46'0 0.0
2018-Jul-15 09:00N 45°35' W 122°46'0 0.0
2018-Jul-15 08:30N 45°35' W 122°46'0 0.0
2018-Jul-15 08:00N 45°35' W 122°46'0 0.0
2018-Jul-15 07:30N 45°35' W 122°46'0 0.0
2018-Jul-15 06:59N 45°35' W 122°46'0 0.0
2018-Jul-15 06:30N 45°35' W 122°46'0 0.0
2018-Jul-15 06:00N 45°35' W 122°46'0 0.0
2018-Jul-15 05:30N 45°35' W 122°46'0 0.0
2018-Jul-15 05:00N 45°35' W 122°46'0 0.0
2018-Jul-15 04:30N 45°35' W 122°46'0 0.0
2018-Jul-15 04:00N 45°35' W 122°46'0 0.0
2018-Jul-15 03:30N 45°35' W 122°46'0 0.0
2018-Jul-15 03:00N 45°35' W 122°46'0 0.0
2018-Jul-15 02:30N 45°35' W 122°46'0 0.0
2018-Jul-15 02:00N 45°35' W 122°46'0 0.0
2018-Jul-15 01:30N 45°35' W 122°46'0 0.0
2018-Jul-15 01:00N 45°35' W 122°46'0 0.0
2018-Jul-15 00:30N 45°35' W 122°46'0 0.0
2018-Jul-15 00:00N 45°35' W 122°46'0 0.0
2018-Jul-14 23:13N 45°35' W 122°46'0 0.0
2018-Jul-14 23:00N 45°35' W 122°46'0 0.0
2018-Jul-14 22:30N 45°35' W 122°46'0 0.0
2018-Jul-14 22:00N 45°35' W 122°46'0 0.0
2018-Jul-14 21:30N 45°35' W 122°46'0 0.0
2018-Jul-14 21:00N 45°35' W 122°46'0 0.0
2018-Jul-14 20:30N 45°35' W 122°46'0 0.0
2018-Jul-14 20:00N 45°35' W 122°46'0 0.0
2018-Jul-14 19:30N 45°35' W 122°46'0 0.0
2018-Jul-14 19:00N 45°35' W 122°46'0 0.0
2018-Jul-14 18:29N 45°35' W 122°46'0 0.0
2018-Jul-14 18:00N 45°35' W 122°46'0 0.0
2018-Jul-14 17:30N 45°35' W 122°46'0 0.0
2018-Jul-14 17:00N 45°35' W 122°46'0 0.0
2018-Jul-14 16:30N 45°35' W 122°46'0 0.0
2018-Jul-14 16:00N 45°35' W 122°46'0 0.0
2018-Jul-14 15:30N 45°35' W 122°46'0 0.0
2018-Jul-14 15:00N 45°35' W 122°46'0 0.0
2018-Jul-14 14:30N 45°35' W 122°46'0 0.0
2018-Jul-14 13:29N 45°35' W 122°46'0 0.0
2018-Jul-14 13:00N 45°35' W 122°46'0 0.0
2018-Jul-14 12:30N 45°35' W 122°46'0 0.0
2018-Jul-14 12:00N 45°35' W 122°46'0 0.0
2018-Jul-14 11:30N 45°35' W 122°46'0 0.0
2018-Jul-14 11:00N 45°35' W 122°46'0 0.0
2018-Jul-14 10:30N 45°35' W 122°46'0 0.0
2018-Jul-14 10:00N 45°35' W 122°46'0 0.0
2018-Jul-14 09:15N 45°35' W 122°46'0 0.0
2018-Jul-14 09:00N 45°35' W 122°46'0 0.0
2018-Jul-14 08:30N 45°35' W 122°46'0 0.0
2018-Jul-14 08:00N 45°35' W 122°46'0 0.0
2018-Jul-14 07:30N 45°35' W 122°46'0 0.0
2018-Jul-14 06:59N 45°35' W 122°46'0 0.0
2018-Jul-14 06:30N 45°35' W 122°46'0 0.0
2018-Jul-14 06:00N 45°35' W 122°46'0 0.0
2018-Jul-14 05:30N 45°35' W 122°46'0 0.0
2018-Jul-14 05:00N 45°35' W 122°46'0 0.0
2018-Jul-14 04:30N 45°35' W 122°46'0 0.0
2018-Jul-14 04:00N 45°35' W 122°46'0 0.0
2018-Jul-14 03:26N 45°35' W 122°46'0 0.0
2018-Jul-14 03:00N 45°35' W 122°46'0 0.0
2018-Jul-14 02:30N 45°35' W 122°46'0 0.0
2018-Jul-14 02:00N 45°35' W 122°46'0 0.0
2018-Jul-14 01:30N 45°35' W 122°46'0 0.0
2018-Jul-14 01:00N 45°35' W 122°46'0 0.0
2018-Jul-14 00:30N 45°35' W 122°46'0 0.0
2018-Jul-13 23:49N 45°35' W 122°46'0 0.0
2018-Jul-13 23:30N 45°35' W 122°46'0 0.0
2018-Jul-13 23:00N 45°35' W 122°46'0 0.0
2018-Jul-13 22:30N 45°35' W 122°46'0 0.0
2018-Jul-13 22:00N 45°35' W 122°46'0 0.0
2018-Jul-13 21:30N 45°35' W 122°46'0 0.0
2018-Jul-13 21:00N 45°35' W 122°46'0 0.0
2018-Jul-13 20:16N 45°35' W 122°46'0 0.0
2018-Jul-13 20:00N 45°35' W 122°46'0 0.0
2018-Jul-13 19:30N 45°35' W 122°46'0 0.0
2018-Jul-13 19:00N 45°35' W 122°46'0 0.0
2018-Jul-13 18:30N 45°35' W 122°46'0 0.0
2018-Jul-13 18:00N 45°35' W 122°46'0 0.0
2018-Jul-13 17:30N 45°35' W 122°46'0 0.0
2018-Jul-13 17:00N 45°35' W 122°46'0 0.0
2018-Jul-13 16:30N 45°35' W 122°46'0 0.0
2018-Jul-13 16:00N 45°35' W 122°46'0 0.0
2018-Jul-13 15:30N 45°35' W 122°46'0 0.0
2018-Jul-13 15:00N 45°35' W 122°46'0 0.0
2018-Jul-13 14:30N 45°35' W 122°46'0 0.0
2018-Jul-13 13:30N 45°35' W 122°46'0 0.0
2018-Jul-13 13:00N 45°35' W 122°46'3 6.2
2018-Jul-13 12:30N 45°33' W 122°42'4 7.6
2018-Jul-13 12:00N 45°30' W 122°40'0 0.8
2018-Jul-13 11:30N 45°29' W 122°40'1 2.3
2018-Jul-13 11:00N 45°30' W 122°40'2 3.9
2018-Jul-13 10:30N 45°32' W 122°41'4 7.1
2018-Jul-13 10:00N 45°35' W 122°45'3 6.9
2018-Jul-13 09:30N 45°37' W 122°47'2 4.8
2018-Jul-13 09:00N 45°39' W 122°45'4 8.2
2018-Jul-13 08:30N 45°37' W 122°40'5 8.2
2018-Jul-13 07:52N 45°36' W 122°32'4 8.2
2018-Jul-13 07:21N 45°34' W 122°27'4 8.6
2018-Jul-13 06:55N 45°34' W 122°21'3 8.0
2018-Jul-13 06:29N 45°33' W 122°17'  

Dump ship's entire track history